LGHI/JKH METAR and TAF weather

Enter ICAO airport designator
Station Type Date Time Source
LGHI METAR 2021/06/24 05:50 UTC NOAA

LGHI 240550Z 02004KT CAVOK 27/21 Q1014


Station Type Date Time Source
LGHI Decoded METAR 2021/06/24 05:50 UTC NOAA

Chios Airport , Greece (LGHI) 38-20N 026-08E 4M
Jun 24, 2021 - 01:50 AM EDT / 2021.06.24 0550 UTC
Wind: from the NNE (020 degrees) at 5 MPH (4 KT):0
Visibility: greater than 7 mile(s):0
Temperature: 80 F (27 C)
Dew Point: 69 F (21 C)
Relative Humidity: 69%
Pressure (altimeter): 29.94 in. Hg (1014 hPa)
ob: LGHI 240550Z 02004KT CAVOK 27/21 Q1014
cycle: 6

Station Type Date Time Source
LGHI TAF 2012/09/21 03:06 UTC NOAA

TAF TAF LGHI 210200Z 2103/2115 VRB05KT 9999 SCT020 PROB30
TEMPO 2103/2106 7000 RA SCT018 BKN030
BECMG 2103/2105 30018KT

Example: see airport list